sensor_id;sensor_type;location;lat;lon;timestamp;P1;durP1;ratioP1;P2;durP2;ratioP2
146;SDS011;45999;48.808;9.182;2023-02-03T00:01:31;1.73;;;0.87;;
146;SDS011;45999;48.808;9.182;2023-02-03T00:03:58;1.37;;;0.50;;
146;SDS011;45999;48.808;9.182;2023-02-03T00:06:24;1.33;;;0.90;;
146;SDS011;45999;48.808;9.182;2023-02-03T00:08:51;0.60;;;0.50;;
146;SDS011;45999;48.808;9.182;2023-02-03T00:11:20;1.70;;;0.83;;
146;SDS011;45999;48.808;9.182;2023-02-03T00:13:47;2.27;;;0.60;;
146;SDS011;45999;48.808;9.182;2023-02-03T00:16:13;0.50;;;0.50;;
146;SDS011;45999;48.808;9.182;2023-02-03T00:18:39;1.07;;;0.60;;
146;SDS011;45999;48.808;9.182;2023-02-03T00:21:06;0.70;;;0.57;;
146;SDS011;45999;48.808;9.182;2023-02-03T00:23:32;0.40;;;0.40;;
146;SDS011;45999;48.808;9.182;2023-02-03T00:26:09;1.37;;;0.50;;
146;SDS011;45999;48.808;9.182;2023-02-03T00:28:37;1.20;;;0.60;;
146;SDS011;45999;48.808;9.182;2023-02-03T00:31:04;1.77;;;0.40;;
146;SDS011;45999;48.808;9.182;2023-02-03T00:33:30;0.50;;;0.50;;
146;SDS011;45999;48.808;9.182;2023-02-03T00:35:57;0.57;;;0.47;;
146;SDS011;45999;48.808;9.182;2023-02-03T00:38:29;0.60;;;0.50;;
146;SDS011;45999;48.808;9.182;2023-02-03T00:40:55;0.40;;;0.40;;
146;SDS011;45999;48.808;9.182;2023-02-03T00:43:21;0.57;;;0.50;;
146;SDS011;45999;48.808;9.182;2023-02-03T00:45:48;1.47;;;0.50;;
146;SDS011;45999;48.808;9.182;2023-02-03T00:48:14;1.03;;;0.50;;
146;SDS011;45999;48.808;9.182;2023-02-03T00:50:40;0.50;;;0.50;;
146;SDS011;45999;48.808;9.182;2023-02-03T00:53:07;1.27;;;0.60;;
146;SDS011;45999;48.808;9.182;2023-02-03T00:55:33;0.50;;;0.50;;
146;SDS011;45999;48.808;9.182;2023-02-03T00:57:59;0.53;;;0.43;;
146;SDS011;45999;48.808;9.182;2023-02-03T01:00:26;0.73;;;0.60;;
146;SDS011;45999;48.808;9.182;2023-02-03T01:02:52;0.50;;;0.50;;
146;SDS011;45999;48.808;9.182;2023-02-03T01:05:18;2.43;;;0.57;;
146;SDS011;45999;48.808;9.182;2023-02-03T01:07:45;0.43;;;0.43;;
146;SDS011;45999;48.808;9.182;2023-02-03T01:10:11;0.67;;;0.50;;
146;SDS011;45999;48.808;9.182;2023-02-03T01:12:38;0.73;;;0.63;;
146;SDS011;45999;48.808;9.182;2023-02-03T01:15:05;0.83;;;0.60;;
146;SDS011;45999;48.808;9.182;2023-02-03T01:17:31;0.40;;;0.40;;
146;SDS011;45999;48.808;9.182;2023-02-03T01:19:58;0.57;;;0.50;;
146;SDS011;45999;48.808;9.182;2023-02-03T01:22:24;0.83;;;0.57;;
146;SDS011;45999;48.808;9.182;2023-02-03T01:24:50;0.40;;;0.40;;
146;SDS011;45999;48.808;9.182;2023-02-03T01:27:17;1.50;;;0.70;;
146;SDS011;45999;48.808;9.182;2023-02-03T01:29:43;0.47;;;0.47;;
146;SDS011;45999;48.808;9.182;2023-02-03T01:32:09;0.83;;;0.60;;
146;SDS011;45999;48.808;9.182;2023-02-03T01:34:36;2.00;;;0.87;;
146;SDS011;45999;48.808;9.182;2023-02-03T01:37:02;0.53;;;0.53;;
146;SDS011;45999;48.808;9.182;2023-02-03T01:39:29;2.10;;;0.67;;
146;SDS011;45999;48.808;9.182;2023-02-03T01:41:55;1.53;;;0.67;;
146;SDS011;45999;48.808;9.182;2023-02-03T01:47:20;1.33;;;0.50;;
146;SDS011;45999;48.808;9.182;2023-02-03T01:49:55;1.00;;;0.70;;
146;SDS011;45999;48.808;9.182;2023-02-03T01:52:25;1.07;;;0.60;;
146;SDS011;45999;48.808;9.182;2023-02-03T01:54:54;1.03;;;0.70;;
146;SDS011;45999;48.808;9.182;2023-02-03T01:57:28;0.63;;;0.60;;
146;SDS011;45999;48.808;9.182;2023-02-03T02:00:00;1.43;;;0.70;;
146;SDS011;45999;48.808;9.182;2023-02-03T02:02:29;0.90;;;0.60;;
146;SDS011;45999;48.808;9.182;2023-02-03T02:05:06;1.03;;;0.70;;
146;SDS011;45999;48.808;9.182;2023-02-03T02:07:39;2.17;;;0.80;;
146;SDS011;45999;48.808;9.182;2023-02-03T02:10:07;0.87;;;0.87;;
146;SDS011;45999;48.808;9.182;2023-02-03T02:12:34;1.93;;;0.80;;
146;SDS011;45999;48.808;9.182;2023-02-03T02:15:01;0.87;;;0.80;;
146;SDS011;45999;48.808;9.182;2023-02-03T02:17:52;2.80;;;1.10;;
146;SDS011;45999;48.808;9.182;2023-02-03T02:20:32;2.57;;;0.93;;
146;SDS011;45999;48.808;9.182;2023-02-03T02:29:21;2.90;;;1.00;;
146;SDS011;45999;48.808;9.182;2023-02-03T02:37:49;2.73;;;0.97;;
146;SDS011;45999;48.808;9.182;2023-02-03T02:40:26;1.87;;;1.00;;
146;SDS011;45999;48.808;9.182;2023-02-03T02:43:14;2.27;;;0.90;;
146;SDS011;45999;48.808;9.182;2023-02-03T02:46:12;1.43;;;1.30;;
146;SDS011;45999;48.808;9.182;2023-02-03T02:48:51;1.57;;;1.00;;
146;SDS011;45999;48.808;9.182;2023-02-03T02:51:22;2.70;;;0.90;;
146;SDS011;45999;48.808;9.182;2023-02-03T02:53:52;1.43;;;1.00;;
146;SDS011;45999;48.808;9.182;2023-02-03T02:56:21;1.23;;;1.00;;
146;SDS011;45999;48.808;9.182;2023-02-03T02:58:50;1.60;;;0.70;;
146;SDS011;45999;48.808;9.182;2023-02-03T03:01:18;1.33;;;0.90;;
146;SDS011;45999;48.808;9.182;2023-02-03T03:03:45;1.10;;;0.70;;
146;SDS011;45999;48.808;9.182;2023-02-03T03:06:21;1.43;;;1.07;;
146;SDS011;45999;48.808;9.182;2023-02-03T03:11:42;2.10;;;0.83;;
146;SDS011;45999;48.808;9.182;2023-02-03T03:14:12;2.13;;;0.70;;
146;SDS011;45999;48.808;9.182;2023-02-03T03:16:45;1.57;;;0.90;;
146;SDS011;45999;48.808;9.182;2023-02-03T03:19:17;1.50;;;0.80;;
146;SDS011;45999;48.808;9.182;2023-02-03T03:21:49;1.43;;;0.80;;
146;SDS011;45999;48.808;9.182;2023-02-03T03:24:21;1.13;;;0.70;;
146;SDS011;45999;48.808;9.182;2023-02-03T03:26:54;1.73;;;1.00;;
146;SDS011;45999;48.808;9.182;2023-02-03T03:29:31;0.60;;;0.60;;
146;SDS011;45999;48.808;9.182;2023-02-03T03:31:59;0.93;;;0.53;;
146;SDS011;45999;48.808;9.182;2023-02-03T03:34:27;2.07;;;0.70;;
146;SDS011;45999;48.808;9.182;2023-02-03T03:36:57;0.87;;;0.50;;
146;SDS011;45999;48.808;9.182;2023-02-03T03:42:29;1.10;;;0.60;;
146;SDS011;45999;48.808;9.182;2023-02-03T03:45:18;0.77;;;0.40;;
146;SDS011;45999;48.808;9.182;2023-02-03T03:47:55;2.10;;;0.50;;
146;SDS011;45999;48.808;9.182;2023-02-03T03:50:29;1.30;;;0.70;;
146;SDS011;45999;48.808;9.182;2023-02-03T03:53:00;1.33;;;0.60;;
146;SDS011;45999;48.808;9.182;2023-02-03T03:55:29;1.60;;;0.60;;
146;SDS011;45999;48.808;9.182;2023-02-03T03:58:01;1.37;;;0.60;;
146;SDS011;45999;48.808;9.182;2023-02-03T04:00:32;0.50;;;0.50;;
146;SDS011;45999;48.808;9.182;2023-02-03T04:03:04;1.23;;;0.50;;
146;SDS011;45999;48.808;9.182;2023-02-03T04:05:36;0.60;;;0.57;;
146;SDS011;45999;48.808;9.182;2023-02-03T04:08:04;0.37;;;0.37;;
146;SDS011;45999;48.808;9.182;2023-02-03T04:12:59;0.50;;;0.50;;
146;SDS011;45999;48.808;9.182;2023-02-03T04:15:26;0.80;;;0.50;;
146;SDS011;45999;48.808;9.182;2023-02-03T04:17:53;0.77;;;0.40;;
146;SDS011;45999;48.808;9.182;2023-02-03T04:20:21;1.17;;;0.57;;
146;SDS011;45999;48.808;9.182;2023-02-03T04:22:48;0.80;;;0.47;;
146;SDS011;45999;48.808;9.182;2023-02-03T04:25:15;1.17;;;0.50;;
146;SDS011;45999;48.808;9.182;2023-02-03T04:27:42;1.47;;;0.60;;
146;SDS011;45999;48.808;9.182;2023-02-03T04:30:08;0.93;;;0.50;;
146;SDS011;45999;48.808;9.182;2023-02-03T04:32:35;1.00;;;0.50;;
146;SDS011;45999;48.808;9.182;2023-02-03T04:35:02;1.30;;;0.60;;
146;SDS011;45999;48.808;9.182;2023-02-03T04:37:29;0.47;;;0.33;;
146;SDS011;45999;48.808;9.182;2023-02-03T04:39:56;1.33;;;0.50;;
146;SDS011;45999;48.808;9.182;2023-02-03T04:42:22;1.53;;;0.50;;
146;SDS011;45999;48.808;9.182;2023-02-03T04:44:49;1.40;;;0.50;;
146;SDS011;45999;48.808;9.182;2023-02-03T04:47:16;0.40;;;0.40;;
146;SDS011;45999;48.808;9.182;2023-02-03T04:49:43;0.50;;;0.50;;
146;SDS011;45999;48.808;9.182;2023-02-03T04:52:10;0.50;;;0.50;;
146;SDS011;45999;48.808;9.182;2023-02-03T04:54:37;0.50;;;0.37;;
146;SDS011;45999;48.808;9.182;2023-02-03T04:57:03;1.17;;;0.40;;
146;SDS011;45999;48.808;9.182;2023-02-03T04:59:30;0.40;;;0.40;;
146;SDS011;45999;48.808;9.182;2023-02-03T05:01:57;0.50;;;0.50;;
146;SDS011;45999;48.808;9.182;2023-02-03T05:04:24;0.40;;;0.40;;
146;SDS011;45999;48.808;9.182;2023-02-03T05:06:50;0.30;;;0.30;;
146;SDS011;45999;48.808;9.182;2023-02-03T05:09:16;1.13;;;0.40;;
146;SDS011;45999;48.808;9.182;2023-02-03T05:11:43;1.33;;;0.50;;
146;SDS011;45999;48.808;9.182;2023-02-03T05:14:09;0.60;;;0.30;;
146;SDS011;45999;48.808;9.182;2023-02-03T05:16:35;1.97;;;0.50;;
146;SDS011;45999;48.808;9.182;2023-02-03T05:19:02;0.57;;;0.50;;
146;SDS011;45999;48.808;9.182;2023-02-03T05:21:28;2.90;;;0.50;;
146;SDS011;45999;48.808;9.182;2023-02-03T05:23:55;0.63;;;0.50;;
146;SDS011;45999;48.808;9.182;2023-02-03T05:26:21;0.77;;;0.30;;
146;SDS011;45999;48.808;9.182;2023-02-03T05:28:47;0.57;;;0.57;;
146;SDS011;45999;48.808;9.182;2023-02-03T05:31:14;0.40;;;0.40;;
146;SDS011;45999;48.808;9.182;2023-02-03T05:33:40;0.70;;;0.50;;
146;SDS011;45999;48.808;9.182;2023-02-03T05:36:07;0.53;;;0.53;;
146;SDS011;45999;48.808;9.182;2023-02-03T05:38:34;0.40;;;0.40;;
146;SDS011;45999;48.808;9.182;2023-02-03T05:41:00;1.20;;;0.40;;
146;SDS011;45999;48.808;9.182;2023-02-03T05:43:44;1.67;;;0.53;;
146;SDS011;45999;48.808;9.182;2023-02-03T05:46:11;0.63;;;0.50;;
146;SDS011;45999;48.808;9.182;2023-02-03T05:48:37;1.33;;;0.50;;
146;SDS011;45999;48.808;9.182;2023-02-03T05:51:03;1.00;;;0.40;;
146;SDS011;45999;48.808;9.182;2023-02-03T05:53:30;0.60;;;0.50;;
146;SDS011;45999;48.808;9.182;2023-02-03T05:55:56;0.70;;;0.47;;
146;SDS011;45999;48.808;9.182;2023-02-03T05:58:23;0.50;;;0.50;;
146;SDS011;45999;48.808;9.182;2023-02-03T06:00:49;1.33;;;0.80;;
146;SDS011;45999;48.808;9.182;2023-02-03T06:03:16;1.63;;;0.50;;
146;SDS011;45999;48.808;9.182;2023-02-03T06:05:43;0.50;;;0.50;;
146;SDS011;45999;48.808;9.182;2023-02-03T06:08:09;2.63;;;0.53;;
146;SDS011;45999;48.808;9.182;2023-02-03T06:10:36;1.03;;;0.50;;
146;SDS011;45999;48.808;9.182;2023-02-03T06:13:14;0.83;;;0.63;;
146;SDS011;45999;48.808;9.182;2023-02-03T06:15:41;1.40;;;0.60;;
146;SDS011;45999;48.808;9.182;2023-02-03T06:18:08;1.07;;;0.60;;
146;SDS011;45999;48.808;9.182;2023-02-03T06:20:34;0.47;;;0.40;;
146;SDS011;45999;48.808;9.182;2023-02-03T06:23:01;0.93;;;0.50;;
146;SDS011;45999;48.808;9.182;2023-02-03T06:25:27;0.43;;;0.40;;
146;SDS011;45999;48.808;9.182;2023-02-03T06:27:56;1.03;;;0.60;;
146;SDS011;45999;48.808;9.182;2023-02-03T06:30:22;0.73;;;0.50;;
146;SDS011;45999;48.808;9.182;2023-02-03T06:32:48;1.70;;;0.70;;
146;SDS011;45999;48.808;9.182;2023-02-03T06:35:15;1.33;;;0.50;;
146;SDS011;45999;48.808;9.182;2023-02-03T06:37:42;0.60;;;0.60;;
146;SDS011;45999;48.808;9.182;2023-02-03T06:40:09;0.97;;;0.70;;
146;SDS011;45999;48.808;9.182;2023-02-03T06:42:36;0.97;;;0.50;;
146;SDS011;45999;48.808;9.182;2023-02-03T06:45:03;1.33;;;0.80;;
146;SDS011;45999;48.808;9.182;2023-02-03T06:47:30;1.47;;;0.70;;
146;SDS011;45999;48.808;9.182;2023-02-03T06:49:56;0.60;;;0.60;;
146;SDS011;45999;48.808;9.182;2023-02-03T06:52:23;0.97;;;0.63;;
146;SDS011;45999;48.808;9.182;2023-02-03T06:54:49;1.03;;;0.60;;
146;SDS011;45999;48.808;9.182;2023-02-03T06:57:15;1.87;;;0.80;;
146;SDS011;45999;48.808;9.182;2023-02-03T06:59:42;0.80;;;0.60;;
146;SDS011;45999;48.808;9.182;2023-02-03T07:02:09;2.23;;;1.00;;
146;SDS011;45999;48.808;9.182;2023-02-03T07:04:42;0.83;;;0.67;;
146;SDS011;45999;48.808;9.182;2023-02-03T07:07:29;0.93;;;0.70;;
146;SDS011;45999;48.808;9.182;2023-02-03T07:10:04;3.63;;;0.73;;
146;SDS011;45999;48.808;9.182;2023-02-03T07:12:38;3.13;;;1.10;;
146;SDS011;45999;48.808;9.182;2023-02-03T07:15:04;1.43;;;0.70;;
146;SDS011;45999;48.808;9.182;2023-02-03T07:17:31;1.67;;;0.90;;
146;SDS011;45999;48.808;9.182;2023-02-03T07:20:10;2.93;;;0.90;;
146;SDS011;45999;48.808;9.182;2023-02-03T07:22:50;3.50;;;0.90;;
146;SDS011;45999;48.808;9.182;2023-02-03T07:25:26;1.97;;;0.70;;
146;SDS011;45999;48.808;9.182;2023-02-03T07:27:57;1.93;;;0.90;;
146;SDS011;45999;48.808;9.182;2023-02-03T07:30:24;2.47;;;0.87;;
146;SDS011;45999;48.808;9.182;2023-02-03T07:32:51;1.73;;;0.90;;
146;SDS011;45999;48.808;9.182;2023-02-03T07:35:19;0.83;;;0.80;;
146;SDS011;45999;48.808;9.182;2023-02-03T07:37:46;3.37;;;1.00;;
146;SDS011;45999;48.808;9.182;2023-02-03T07:40:18;2.10;;;0.90;;
146;SDS011;45999;48.808;9.182;2023-02-03T07:42:49;1.77;;;0.90;;
146;SDS011;45999;48.808;9.182;2023-02-03T07:45:26;1.50;;;0.83;;
146;SDS011;45999;48.808;9.182;2023-02-03T07:47:57;0.87;;;0.87;;
146;SDS011;45999;48.808;9.182;2023-02-03T07:50:30;2.97;;;0.97;;
146;SDS011;45999;48.808;9.182;2023-02-03T07:53:00;3.07;;;1.03;;
146;SDS011;45999;48.808;9.182;2023-02-03T07:55:30;1.23;;;0.87;;
146;SDS011;45999;48.808;9.182;2023-02-03T07:57:57;0.87;;;0.87;;
146;SDS011;45999;48.808;9.182;2023-02-03T08:00:24;3.00;;;1.17;;
146;SDS011;45999;48.808;9.182;2023-02-03T08:02:51;1.90;;;0.90;;
146;SDS011;45999;48.808;9.182;2023-02-03T08:05:17;1.80;;;0.90;;
146;SDS011;45999;48.808;9.182;2023-02-03T08:07:44;1.53;;;1.07;;
146;SDS011;45999;48.808;9.182;2023-02-03T08:10:11;1.10;;;1.00;;
146;SDS011;45999;48.808;9.182;2023-02-03T08:12:39;2.10;;;1.00;;
146;SDS011;45999;48.808;9.182;2023-02-03T08:15:07;1.23;;;1.03;;
146;SDS011;45999;48.808;9.182;2023-02-03T08:17:34;3.53;;;1.20;;
146;SDS011;45999;48.808;9.182;2023-02-03T08:20:00;2.33;;;0.93;;
146;SDS011;45999;48.808;9.182;2023-02-03T08:22:26;2.93;;;1.13;;
146;SDS011;45999;48.808;9.182;2023-02-03T08:24:53;2.53;;;1.33;;
146;SDS011;45999;48.808;9.182;2023-02-03T08:27:20;2.97;;;0.87;;
146;SDS011;45999;48.808;9.182;2023-02-03T08:29:48;3.00;;;1.10;;
146;SDS011;45999;48.808;9.182;2023-02-03T08:32:16;3.03;;;1.20;;
146;SDS011;45999;48.808;9.182;2023-02-03T08:34:45;3.03;;;1.40;;
146;SDS011;45999;48.808;9.182;2023-02-03T08:37:13;1.33;;;1.20;;
146;SDS011;45999;48.808;9.182;2023-02-03T08:39:41;1.87;;;1.20;;
146;SDS011;45999;48.808;9.182;2023-02-03T08:42:08;3.30;;;1.37;;
146;SDS011;45999;48.808;9.182;2023-02-03T08:44:35;1.73;;;1.03;;
146;SDS011;45999;48.808;9.182;2023-02-03T08:47:03;2.67;;;1.20;;
146;SDS011;45999;48.808;9.182;2023-02-03T08:49:30;3.07;;;1.27;;
146;SDS011;45999;48.808;9.182;2023-02-03T08:51:57;1.57;;;1.17;;
146;SDS011;45999;48.808;9.182;2023-02-03T08:54:24;3.50;;;1.33;;
146;SDS011;45999;48.808;9.182;2023-02-03T08:56:50;2.23;;;1.30;;
146;SDS011;45999;48.808;9.182;2023-02-03T08:59:17;3.63;;;1.27;;
146;SDS011;45999;48.808;9.182;2023-02-03T09:01:44;3.03;;;1.30;;
146;SDS011;45999;48.808;9.182;2023-02-03T09:04:12;2.40;;;1.40;;
146;SDS011;45999;48.808;9.182;2023-02-03T09:06:42;2.87;;;1.43;;
146;SDS011;45999;48.808;9.182;2023-02-03T09:09:08;3.07;;;1.13;;
146;SDS011;45999;48.808;9.182;2023-02-03T09:11:35;1.53;;;1.10;;
146;SDS011;45999;48.808;9.182;2023-02-03T09:14:01;3.03;;;1.50;;
146;SDS011;45999;48.808;9.182;2023-02-03T09:16:27;4.20;;;1.33;;
146;SDS011;45999;48.808;9.182;2023-02-03T09:18:54;1.67;;;1.40;;
146;SDS011;45999;48.808;9.182;2023-02-03T09:21:21;3.00;;;1.43;;
146;SDS011;45999;48.808;9.182;2023-02-03T09:23:48;3.53;;;1.23;;
146;SDS011;45999;48.808;9.182;2023-02-03T09:26:15;3.90;;;1.20;;
146;SDS011;45999;48.808;9.182;2023-02-03T09:28:41;4.03;;;1.20;;
146;SDS011;45999;48.808;9.182;2023-02-03T09:31:10;2.80;;;1.20;;
146;SDS011;45999;48.808;9.182;2023-02-03T09:33:38;1.77;;;1.30;;
146;SDS011;45999;48.808;9.182;2023-02-03T09:36:05;2.30;;;1.33;;
146;SDS011;45999;48.808;9.182;2023-02-03T09:38:33;1.80;;;1.20;;
146;SDS011;45999;48.808;9.182;2023-02-03T09:43:40;1.53;;;1.00;;
146;SDS011;45999;48.808;9.182;2023-02-03T09:46:15;2.47;;;1.40;;
146;SDS011;45999;48.808;9.182;2023-02-03T09:48:52;3.73;;;1.23;;
146;SDS011;45999;48.808;9.182;2023-02-03T09:51:25;0.87;;;0.83;;
146;SDS011;45999;48.808;9.182;2023-02-03T09:53:58;2.03;;;1.07;;
146;SDS011;45999;48.808;9.182;2023-02-03T09:56:31;1.33;;;1.10;;
146;SDS011;45999;48.808;9.182;2023-02-03T09:58:59;3.23;;;1.00;;
146;SDS011;45999;48.808;9.182;2023-02-03T10:01:31;1.90;;;1.17;;
146;SDS011;45999;48.808;9.182;2023-02-03T10:04:04;2.30;;;1.07;;
146;SDS011;45999;48.808;9.182;2023-02-03T10:06:48;0.77;;;0.73;;
146;SDS011;45999;48.808;9.182;2023-02-03T10:09:32;3.13;;;1.43;;
146;SDS011;45999;48.808;9.182;2023-02-03T10:17:55;1.37;;;0.83;;
146;SDS011;45999;48.808;9.182;2023-02-03T10:20:45;2.37;;;0.80;;
146;SDS011;45999;48.808;9.182;2023-02-03T10:23:21;4.07;;;0.93;;
146;SDS011;45999;48.808;9.182;2023-02-03T10:25:52;0.80;;;0.80;;
146;SDS011;45999;48.808;9.182;2023-02-03T10:28:22;1.47;;;0.70;;
146;SDS011;45999;48.808;9.182;2023-02-03T10:30:55;0.97;;;0.60;;
146;SDS011;45999;48.808;9.182;2023-02-03T10:33:30;0.67;;;0.60;;
146;SDS011;45999;48.808;9.182;2023-02-03T10:36:10;0.60;;;0.60;;
146;SDS011;45999;48.808;9.182;2023-02-03T10:38:58;0.50;;;0.50;;
146;SDS011;45999;48.808;9.182;2023-02-03T10:41:28;1.33;;;0.80;;
146;SDS011;45999;48.808;9.182;2023-02-03T10:43:56;1.13;;;0.70;;
146;SDS011;45999;48.808;9.182;2023-02-03T10:46:27;0.50;;;0.40;;
146;SDS011;45999;48.808;9.182;2023-02-03T10:48:56;1.30;;;0.50;;
146;SDS011;45999;48.808;9.182;2023-02-03T10:51:24;0.40;;;0.40;;
146;SDS011;45999;48.808;9.182;2023-02-03T10:53:54;0.40;;;0.40;;
146;SDS011;45999;48.808;9.182;2023-02-03T10:56:38;2.00;;;0.53;;
146;SDS011;45999;48.808;9.182;2023-02-03T10:59:05;0.77;;;0.40;;
146;SDS011;45999;48.808;9.182;2023-02-03T11:01:41;0.47;;;0.40;;
146;SDS011;45999;48.808;9.182;2023-02-03T11:04:26;1.33;;;0.50;;
146;SDS011;45999;48.808;9.182;2023-02-03T11:06:58;1.07;;;0.30;;
146;SDS011;45999;48.808;9.182;2023-02-03T11:09:33;0.70;;;0.50;;
146;SDS011;45999;48.808;9.182;2023-02-03T11:12:04;0.97;;;0.40;;
146;SDS011;45999;48.808;9.182;2023-02-03T11:14:48;1.03;;;0.30;;
146;SDS011;45999;48.808;9.182;2023-02-03T11:17:23;0.40;;;0.37;;
146;SDS011;45999;48.808;9.182;2023-02-03T11:19:52;0.63;;;0.60;;
146;SDS011;45999;48.808;9.182;2023-02-03T11:22:30;0.33;;;0.30;;
146;SDS011;45999;48.808;9.182;2023-02-03T11:25:01;0.80;;;0.40;;
146;SDS011;45999;48.808;9.182;2023-02-03T11:27:30;1.03;;;0.70;;
146;SDS011;45999;48.808;9.182;2023-02-03T11:32:42;0.53;;;0.30;;
146;SDS011;45999;48.808;9.182;2023-02-03T11:37:42;0.90;;;0.40;;
146;SDS011;45999;48.808;9.182;2023-02-03T11:42:40;0.40;;;0.40;;
146;SDS011;45999;48.808;9.182;2023-02-03T11:53:22;0.50;;;0.40;;
146;SDS011;45999;48.808;9.182;2023-02-03T12:09:34;0.53;;;0.50;;
146;SDS011;45999;48.808;9.182;2023-02-03T12:23:08;0.50;;;0.50;;
146;SDS011;45999;48.808;9.182;2023-02-03T12:25:47;0.33;;;0.33;;
146;SDS011;45999;48.808;9.182;2023-02-03T12:28:45;0.40;;;0.37;;
146;SDS011;45999;48.808;9.182;2023-02-03T12:31:34;0.40;;;0.40;;
146;SDS011;45999;48.808;9.182;2023-02-03T12:34:22;1.10;;;0.40;;
146;SDS011;45999;48.808;9.182;2023-02-03T12:37:00;0.37;;;0.37;;
146;SDS011;45999;48.808;9.182;2023-02-03T12:39:37;0.40;;;0.40;;
146;SDS011;45999;48.808;9.182;2023-02-03T12:42:13;0.23;;;0.23;;
146;SDS011;45999;48.808;9.182;2023-02-03T12:44:51;0.50;;;0.50;;
146;SDS011;45999;48.808;9.182;2023-02-03T12:47:27;1.17;;;0.40;;
146;SDS011;45999;48.808;9.182;2023-02-03T12:50:02;0.40;;;0.40;;
146;SDS011;45999;48.808;9.182;2023-02-03T12:52:42;0.37;;;0.37;;
146;SDS011;45999;48.808;9.182;2023-02-03T12:57:55;0.33;;;0.30;;
146;SDS011;45999;48.808;9.182;2023-02-03T13:11:22;0.47;;;0.47;;
146;SDS011;45999;48.808;9.182;2023-02-03T13:16:32;1.10;;;0.50;;
146;SDS011;45999;48.808;9.182;2023-02-03T13:19:10;1.83;;;0.70;;
146;SDS011;45999;48.808;9.182;2023-02-03T13:21:43;0.60;;;0.47;;
146;SDS011;45999;48.808;9.182;2023-02-03T13:24:10;2.00;;;0.40;;
146;SDS011;45999;48.808;9.182;2023-02-03T13:26:42;0.60;;;0.50;;
146;SDS011;45999;48.808;9.182;2023-02-03T13:29:37;0.60;;;0.50;;
146;SDS011;45999;48.808;9.182;2023-02-03T13:32:32;1.17;;;0.50;;
146;SDS011;45999;48.808;9.182;2023-02-03T13:38:32;1.47;;;0.57;;
146;SDS011;45999;48.808;9.182;2023-02-03T13:41:26;0.60;;;0.50;;
146;SDS011;45999;48.808;9.182;2023-02-03T13:44:00;0.57;;;0.53;;
146;SDS011;45999;48.808;9.182;2023-02-03T13:46:32;0.60;;;0.60;;
146;SDS011;45999;48.808;9.182;2023-02-03T13:49:01;0.77;;;0.40;;
146;SDS011;45999;48.808;9.182;2023-02-03T13:51:29;1.30;;;0.50;;
146;SDS011;45999;48.808;9.182;2023-02-03T13:54:01;1.13;;;0.60;;
146;SDS011;45999;48.808;9.182;2023-02-03T13:56:31;0.87;;;0.67;;
146;SDS011;45999;48.808;9.182;2023-02-03T13:58:59;0.83;;;0.60;;
146;SDS011;45999;48.808;9.182;2023-02-03T14:03:59;0.63;;;0.60;;
146;SDS011;45999;48.808;9.182;2023-02-03T14:19:59;0.50;;;0.40;;
146;SDS011;45999;48.808;9.182;2023-02-03T14:22:26;2.03;;;0.40;;
146;SDS011;45999;48.808;9.182;2023-02-03T14:24:54;0.57;;;0.50;;
146;SDS011;45999;48.808;9.182;2023-02-03T14:27:24;2.50;;;0.60;;
146;SDS011;45999;48.808;9.182;2023-02-03T14:30:03;0.80;;;0.30;;
146;SDS011;45999;48.808;9.182;2023-02-03T14:35:30;0.47;;;0.43;;
146;SDS011;45999;48.808;9.182;2023-02-03T14:38:02;0.40;;;0.40;;
146;SDS011;45999;48.808;9.182;2023-02-03T14:46:15;0.40;;;0.40;;
146;SDS011;45999;48.808;9.182;2023-02-03T14:49:32;0.67;;;0.50;;
146;SDS011;45999;48.808;9.182;2023-02-03T14:57:44;0.40;;;0.40;;
146;SDS011;45999;48.808;9.182;2023-02-03T15:10:55;0.40;;;0.40;;
146;SDS011;45999;48.808;9.182;2023-02-03T15:13:25;0.40;;;0.40;;
146;SDS011;45999;48.808;9.182;2023-02-03T15:15:56;0.30;;;0.30;;
146;SDS011;45999;48.808;9.182;2023-02-03T15:20:55;1.63;;;0.47;;
146;SDS011;45999;48.808;9.182;2023-02-03T15:23:23;0.30;;;0.30;;
146;SDS011;45999;48.808;9.182;2023-02-03T15:28:28;0.40;;;0.40;;
146;SDS011;45999;48.808;9.182;2023-02-03T15:31:04;0.30;;;0.30;;
146;SDS011;45999;48.808;9.182;2023-02-03T15:33:35;0.50;;;0.37;;
146;SDS011;45999;48.808;9.182;2023-02-03T15:36:05;0.30;;;0.30;;
146;SDS011;45999;48.808;9.182;2023-02-03T15:38:39;0.30;;;0.30;;
146;SDS011;45999;48.808;9.182;2023-02-03T15:41:12;0.60;;;0.40;;
146;SDS011;45999;48.808;9.182;2023-02-03T15:43:46;1.30;;;0.60;;
146;SDS011;45999;48.808;9.182;2023-02-03T15:46:30;0.30;;;0.27;;
146;SDS011;45999;48.808;9.182;2023-02-03T15:52:06;1.13;;;0.50;;
146;SDS011;45999;48.808;9.182;2023-02-03T15:54:35;0.40;;;0.40;;
146;SDS011;45999;48.808;9.182;2023-02-03T15:57:07;0.83;;;0.43;;
146;SDS011;45999;48.808;9.182;2023-02-03T15:59:40;0.50;;;0.50;;
146;SDS011;45999;48.808;9.182;2023-02-03T16:02:16;1.47;;;0.60;;
146;SDS011;45999;48.808;9.182;2023-02-03T16:04:46;0.47;;;0.43;;
146;SDS011;45999;48.808;9.182;2023-02-03T16:07:15;0.97;;;0.60;;
146;SDS011;45999;48.808;9.182;2023-02-03T16:09:45;0.40;;;0.30;;
146;SDS011;45999;48.808;9.182;2023-02-03T16:12:22;0.47;;;0.47;;
146;SDS011;45999;48.808;9.182;2023-02-03T16:14:54;0.30;;;0.30;;
146;SDS011;45999;48.808;9.182;2023-02-03T16:17:25;0.40;;;0.40;;
146;SDS011;45999;48.808;9.182;2023-02-03T16:22:59;0.40;;;0.40;;
146;SDS011;45999;48.808;9.182;2023-02-03T16:25:29;0.63;;;0.43;;
146;SDS011;45999;48.808;9.182;2023-02-03T16:30:56;0.40;;;0.40;;
146;SDS011;45999;48.808;9.182;2023-02-03T16:33:47;0.80;;;0.40;;
146;SDS011;45999;48.808;9.182;2023-02-03T16:36:32;0.53;;;0.53;;
146;SDS011;45999;48.808;9.182;2023-02-03T16:39:21;0.60;;;0.60;;
146;SDS011;45999;48.808;9.182;2023-02-03T16:42:08;1.43;;;0.60;;
146;SDS011;45999;48.808;9.182;2023-02-03T16:44:58;1.13;;;0.50;;
146;SDS011;45999;48.808;9.182;2023-02-03T16:47:41;0.70;;;0.60;;
146;SDS011;45999;48.808;9.182;2023-02-03T16:50:26;0.60;;;0.60;;
146;SDS011;45999;48.808;9.182;2023-02-03T16:53:12;1.67;;;0.70;;
146;SDS011;45999;48.808;9.182;2023-02-03T16:55:40;1.80;;;0.60;;
146;SDS011;45999;48.808;9.182;2023-02-03T16:58:08;0.70;;;0.70;;
146;SDS011;45999;48.808;9.182;2023-02-03T17:00:36;0.60;;;0.50;;
146;SDS011;45999;48.808;9.182;2023-02-03T17:03:05;0.73;;;0.70;;
146;SDS011;45999;48.808;9.182;2023-02-03T17:05:36;0.60;;;0.60;;
146;SDS011;45999;48.808;9.182;2023-02-03T17:08:03;0.93;;;0.60;;
146;SDS011;45999;48.808;9.182;2023-02-03T17:10:32;1.27;;;0.70;;
146;SDS011;45999;48.808;9.182;2023-02-03T17:12:59;0.60;;;0.60;;
146;SDS011;45999;48.808;9.182;2023-02-03T17:15:26;0.60;;;0.60;;
146;SDS011;45999;48.808;9.182;2023-02-03T17:17:52;1.57;;;0.60;;
146;SDS011;45999;48.808;9.182;2023-02-03T17:20:19;0.60;;;0.60;;
146;SDS011;45999;48.808;9.182;2023-02-03T17:22:45;0.70;;;0.70;;
146;SDS011;45999;48.808;9.182;2023-02-03T17:25:15;0.63;;;0.63;;
146;SDS011;45999;48.808;9.182;2023-02-03T17:27:42;1.03;;;0.60;;
146;SDS011;45999;48.808;9.182;2023-02-03T17:30:08;0.53;;;0.50;;
146;SDS011;45999;48.808;9.182;2023-02-03T17:32:35;0.80;;;0.80;;
146;SDS011;45999;48.808;9.182;2023-02-03T17:35:01;0.57;;;0.50;;
146;SDS011;45999;48.808;9.182;2023-02-03T17:37:31;0.60;;;0.50;;
146;SDS011;45999;48.808;9.182;2023-02-03T17:39:58;0.70;;;0.70;;
146;SDS011;45999;48.808;9.182;2023-02-03T17:42:24;1.33;;;0.70;;
146;SDS011;45999;48.808;9.182;2023-02-03T17:44:50;0.70;;;0.53;;
146;SDS011;45999;48.808;9.182;2023-02-03T17:47:17;0.40;;;0.40;;
146;SDS011;45999;48.808;9.182;2023-02-03T17:49:44;0.70;;;0.70;;
146;SDS011;45999;48.808;9.182;2023-02-03T17:52:12;0.63;;;0.63;;
146;SDS011;45999;48.808;9.182;2023-02-03T17:54:38;0.60;;;0.60;;
146;SDS011;45999;48.808;9.182;2023-02-03T17:57:05;0.50;;;0.50;;
146;SDS011;45999;48.808;9.182;2023-02-03T17:59:31;0.50;;;0.50;;
146;SDS011;45999;48.808;9.182;2023-02-03T18:01:59;1.00;;;0.60;;
146;SDS011;45999;48.808;9.182;2023-02-03T18:04:26;0.80;;;0.60;;